createdAt,value
2022-11-03T00:01:39.953Z,7.67
2022-11-03T00:04:10.780Z,7.62
2022-11-03T00:06:40.385Z,7.60
2022-11-03T00:09:12.394Z,7.59
2022-11-03T00:11:45.436Z,7.53
2022-11-03T00:14:15.202Z,7.58
2022-11-03T00:16:44.523Z,7.59
2022-11-03T00:19:16.323Z,7.62
2022-11-03T00:21:45.585Z,7.59
2022-11-03T00:24:14.816Z,7.59
2022-11-03T00:26:44.787Z,7.62
2022-11-03T00:29:16.421Z,7.59
2022-11-03T00:31:46.641Z,7.55
2022-11-03T00:34:15.673Z,7.54
2022-11-03T00:36:45.993Z,7.54
2022-11-03T00:39:14.667Z,7.56
2022-11-03T00:41:44.930Z,7.45
2022-11-03T00:44:13.539Z,7.37
2022-11-03T00:46:42.060Z,7.31
2022-11-03T00:49:10.648Z,7.37
2022-11-03T00:51:39.226Z,7.36
2022-11-03T00:54:09.407Z,7.25
2022-11-03T00:56:41.274Z,7.18
2022-11-03T00:59:11.980Z,7.22
2022-11-03T01:01:46.805Z,7.24
2022-11-03T01:04:35.343Z,7.19
2022-11-03T01:07:05.896Z,7.20
2022-11-03T01:09:39.137Z,7.18
2022-11-03T01:12:11.694Z,7.19
2022-11-03T01:14:45.615Z,7.21
2022-11-03T01:17:16.973Z,7.16
2022-11-03T01:19:47.096Z,7.14
2022-11-03T01:22:18.318Z,7.14
2022-11-03T01:24:48.022Z,7.15
2022-11-03T01:27:21.177Z,7.18
2022-11-03T01:29:51.111Z,7.16
2022-11-03T01:32:19.717Z,7.13
2022-11-03T01:34:48.206Z,7.08
2022-11-03T01:37:16.713Z,7.01
2022-11-03T01:39:45.289Z,6.97
2022-11-03T01:42:15.328Z,7.00
2022-11-03T01:44:48.958Z,7.02
2022-11-03T01:47:31.067Z,7.02
2022-11-03T01:50:06.584Z,6.94
2022-11-03T01:52:42.120Z,6.87
2022-11-03T01:55:17.628Z,6.92
2022-11-03T01:57:53.881Z,6.91
2022-11-03T02:00:23.359Z,6.87
2022-11-03T02:02:53.842Z,6.82
2022-11-03T02:05:26.443Z,6.87
2022-11-03T02:08:01.872Z,6.88
2022-11-03T02:10:30.651Z,6.88
2022-11-03T02:12:59.995Z,6.83
2022-11-03T02:15:30.578Z,6.88
2022-11-03T02:18:02.873Z,6.88
2022-11-03T02:20:34.561Z,6.90
2022-11-03T02:23:34.024Z,6.91
2022-11-03T02:26:04.631Z,6.91
2022-11-03T02:28:34.772Z,6.91
2022-11-03T02:31:16.100Z,6.89
2022-11-03T02:33:55.080Z,6.84
2022-11-03T02:36:30.548Z,6.79
2022-11-03T02:39:07.148Z,6.80
2022-11-03T02:41:40.900Z,6.81
2022-11-03T02:44:17.520Z,6.83
2022-11-03T02:46:51.733Z,6.84
2022-11-03T02:49:20.162Z,6.80
2022-11-03T02:51:48.718Z,6.76
2022-11-03T02:54:24.745Z,6.78
2022-11-03T02:57:01.647Z,6.80
2022-11-03T02:59:39.038Z,6.79
2022-11-03T03:02:15.196Z,6.78
2022-11-03T03:04:51.198Z,6.75
2022-11-03T03:07:27.789Z,6.74
2022-11-03T03:10:03.702Z,6.73
2022-11-03T03:12:39.128Z,6.67
2022-11-03T03:15:10.445Z,6.63
2022-11-03T03:17:50.586Z,6.62
2022-11-03T03:20:26.685Z,6.64
2022-11-03T03:23:04.158Z,6.65
2022-11-03T03:25:42.136Z,6.67
2022-11-03T03:28:16.943Z,6.67
2022-11-03T03:30:50.069Z,6.64
2022-11-03T03:33:20.232Z,6.60
2022-11-03T03:35:52.570Z,6.63
2022-11-03T03:38:27.715Z,6.66
2022-11-03T03:41:05.511Z,6.61
2022-11-03T03:43:38.472Z,6.54
2022-11-03T03:46:12.773Z,6.55
2022-11-03T03:48:41.859Z,6.60
2022-11-03T03:51:12.547Z,6.61
2022-11-03T03:53:41.156Z,6.61
2022-11-03T03:56:10.335Z,6.61
2022-11-03T03:58:41.051Z,6.62
2022-11-03T04:01:13.425Z,6.63
2022-11-03T04:03:42.057Z,6.59
2022-11-03T04:06:11.124Z,6.59
2022-11-03T04:08:39.824Z,6.59
2022-11-03T04:11:26.202Z,6.60
2022-11-03T04:14:13.356Z,6.54
2022-11-03T04:16:59.699Z,6.51
2022-11-03T04:19:45.885Z,6.51
2022-11-03T04:22:17.456Z,6.47
2022-11-03T04:24:47.932Z,6.48
2022-11-03T04:27:33.659Z,6.51
2022-11-03T04:30:17.574Z,6.48
2022-11-03T04:32:48.761Z,6.47
2022-11-03T04:35:20.946Z,6.45
2022-11-03T04:37:56.268Z,6.39
2022-11-03T04:40:25.304Z,6.42
2022-11-03T04:42:54.158Z,6.44
2022-11-03T04:45:30.806Z,6.43
2022-11-03T04:48:02.890Z,6.44
2022-11-03T04:50:32.282Z,6.45
2022-11-03T04:53:01.560Z,6.45
2022-11-03T04:55:30.124Z,6.43
2022-11-03T04:58:03.942Z,6.45
2022-11-03T05:00:33.755Z,6.45
2022-11-03T05:03:02.322Z,6.44
2022-11-03T05:05:31.325Z,6.44
2022-11-03T05:08:00.552Z,6.43
2022-11-03T05:10:30.689Z,6.42
2022-11-03T05:13:02.690Z,6.42
2022-11-03T05:15:37.868Z,6.41
2022-11-03T05:18:22.780Z,6.42
2022-11-03T05:20:57.722Z,6.41
2022-11-03T05:23:30.870Z,6.42
2022-11-03T05:26:00.575Z,6.43
2022-11-03T05:28:34.929Z,6.40
2022-11-03T05:31:21.933Z,6.36
2022-11-03T05:33:51.678Z,6.29
2022-11-03T05:36:24.363Z,6.23
2022-11-03T05:38:57.269Z,6.23
2022-11-03T05:41:30.185Z,6.18
2022-11-03T05:44:02.054Z,6.19
2022-11-03T05:46:37.037Z,6.17
2022-11-03T05:49:08.725Z,6.24
2022-11-03T05:51:42.777Z,6.15
2022-11-03T05:54:22.068Z,6.06
2022-11-03T05:56:51.832Z,6.02
2022-11-03T05:59:29.749Z,6.13
2022-11-03T06:02:02.309Z,6.14
2022-11-03T06:04:38.094Z,6.11
2022-11-03T06:07:22.423Z,6.10
2022-11-03T06:09:51.117Z,6.12
2022-11-03T06:12:23.450Z,6.13
2022-11-03T06:14:53.511Z,6.11
2022-11-03T06:17:28.564Z,6.12
2022-11-03T06:20:01.354Z,6.16
2022-11-03T06:22:37.212Z,6.17
2022-11-03T06:25:31.281Z,6.14
2022-11-03T06:28:06.086Z,6.11
2022-11-03T06:30:40.308Z,6.14
2022-11-03T06:33:17.342Z,6.14
2022-11-03T06:35:46.916Z,6.04
2022-11-03T06:38:21.812Z,6.05
2022-11-03T06:40:53.076Z,6.07
2022-11-03T06:43:28.880Z,6.11
2022-11-03T06:46:00.374Z,6.15
2022-11-03T06:48:31.718Z,6.18
2022-11-03T06:51:02.004Z,6.23
2022-11-03T06:53:35.232Z,6.26
2022-11-03T06:56:03.861Z,6.27
2022-11-03T06:58:36.760Z,6.31
2022-11-03T07:01:17.825Z,6.34
2022-11-03T07:03:48.125Z,6.32
2022-11-03T07:06:24.729Z,6.25
2022-11-03T07:08:56.777Z,6.23
2022-11-03T07:11:28.458Z,6.26
2022-11-03T07:14:00.634Z,6.26
2022-11-03T07:16:36.422Z,6.25
2022-11-03T07:19:16.016Z,6.27
2022-11-03T07:21:49.986Z,6.25
2022-11-03T07:24:25.202Z,6.23
2022-11-03T07:27:01.328Z,6.27
2022-11-03T07:29:32.534Z,6.31
2022-11-03T07:32:01.593Z,6.32
2022-11-03T07:34:36.366Z,6.34
2022-11-03T07:37:08.495Z,6.37
2022-11-03T07:39:39.669Z,6.41
2022-11-03T07:42:19.068Z,6.46
2022-11-03T07:44:48.541Z,6.49
2022-11-03T07:47:23.236Z,6.52
2022-11-03T07:49:53.356Z,6.57
2022-11-03T07:52:26.154Z,6.63
2022-11-03T07:54:58.136Z,6.66
2022-11-03T07:57:30.718Z,6.72
2022-11-03T08:00:09.026Z,6.73
2022-11-03T08:02:49.821Z,6.78
2022-11-03T08:07:48.504Z,6.85
2022-11-03T08:10:17.332Z,6.90
2022-11-03T08:12:45.996Z,6.95
2022-11-03T08:15:16.002Z,7.00
2022-11-03T08:17:45.013Z,7.04
2022-11-03T08:20:14.355Z,7.09
2022-11-03T08:22:59.111Z,7.12
2022-11-03T08:25:33.786Z,7.16
2022-11-03T08:28:03.189Z,7.19
2022-11-03T08:30:32.055Z,7.22
2022-11-03T08:33:00.888Z,7.27
2022-11-03T08:35:31.591Z,7.29
2022-11-03T08:38:04.333Z,7.34
2022-11-03T08:40:33.727Z,7.40
2022-11-03T08:43:03.190Z,7.41
2022-11-03T08:45:32.229Z,7.45
2022-11-03T08:48:00.988Z,7.48
2022-11-03T08:50:30.436Z,7.52
2022-11-03T08:52:59.111Z,7.55
2022-11-03T08:55:29.124Z,7.57
2022-11-03T08:57:57.799Z,7.61
2022-11-03T09:00:26.492Z,7.59
2022-11-03T09:02:55.184Z,7.57
2022-11-03T09:05:23.966Z,7.62
2022-11-03T09:10:45.002Z,7.77
2022-11-03T09:13:13.574Z,7.82
2022-11-03T09:15:42.275Z,7.87
2022-11-03T09:18:11.483Z,7.94
2022-11-03T09:20:40.326Z,7.99
2022-11-03T09:23:09.586Z,8.05
2022-11-03T09:25:38.953Z,8.09
2022-11-03T09:28:09.914Z,8.15
2022-11-03T09:30:38.687Z,8.19
2022-11-03T09:33:07.769Z,8.23
2022-11-03T09:35:36.578Z,8.28
2022-11-03T09:38:06.155Z,8.33
2022-11-03T09:40:37.130Z,8.38
2022-11-03T09:43:06.134Z,8.43
2022-11-03T09:45:37.158Z,8.47
2022-11-03T09:48:06.726Z,8.52
2022-11-03T09:50:35.550Z,8.59
2022-11-03T09:53:04.312Z,8.62
2022-11-03T09:55:34.987Z,8.64
2022-11-03T09:58:12.315Z,8.67
2022-11-03T10:00:42.907Z,8.71
2022-11-03T10:03:13.990Z,8.74
2022-11-03T10:05:46.337Z,8.76
2022-11-03T10:08:26.455Z,8.78
2022-11-03T10:10:56.673Z,8.81
2022-11-03T10:13:31.923Z,8.85
2022-11-03T10:16:05.512Z,8.87
2022-11-03T10:18:35.825Z,8.90
2022-11-03T10:21:08.472Z,8.93
2022-11-03T10:23:37.388Z,8.96
2022-11-03T10:26:12.849Z,8.98
2022-11-03T10:28:58.212Z,9.01
2022-11-03T10:31:36.044Z,9.04
2022-11-03T10:34:05.951Z,9.06
2022-11-03T10:36:35.737Z,9.09
2022-11-03T10:39:30.676Z,9.13
2022-11-03T10:42:03.922Z,9.15
2022-11-03T10:44:33.032Z,9.18
2022-11-03T10:47:05.514Z,9.22
2022-11-03T10:49:40.889Z,9.24
2022-11-03T10:52:22.626Z,9.28
2022-11-03T10:54:54.042Z,9.30
2022-11-03T10:57:23.934Z,9.34
2022-11-03T10:59:55.611Z,9.36
2022-11-03T11:02:31.391Z,9.39
2022-11-03T11:05:03.148Z,9.39
2022-11-03T11:07:36.863Z,9.41
2022-11-03T11:10:13.131Z,9.42
2022-11-03T11:13:01.102Z,9.44
2022-11-03T11:15:43.120Z,9.46
2022-11-03T11:18:47.864Z,9.49
2022-11-03T11:22:07.491Z,9.50
2022-11-03T11:25:02.610Z,9.54
2022-11-03T11:27:59.623Z,9.55
2022-11-03T11:31:03.983Z,9.59
2022-11-03T11:33:35.477Z,9.63
2022-11-03T11:36:24.478Z,9.67
2022-11-03T11:38:58.575Z,9.71
2022-11-03T11:42:12.309Z,9.74
2022-11-03T11:45:07.209Z,9.76
2022-11-03T11:47:56.400Z,9.81
2022-11-03T11:50:31.777Z,9.85
2022-11-03T11:53:12.434Z,9.89
2022-11-03T11:55:46.916Z,9.92
2022-11-03T11:58:24.912Z,9.97
2022-11-03T12:01:02.539Z,10.01
2022-11-03T12:03:39.039Z,10.05
2022-11-03T12:06:10.554Z,10.11
2022-11-03T12:08:39.551Z,10.18
2022-11-03T12:11:12.018Z,10.24
2022-11-03T12:13:51.443Z,10.29
2022-11-03T12:16:36.990Z,10.34
2022-11-03T12:19:39.310Z,10.40
2022-11-03T12:22:11.786Z,10.44
2022-11-03T12:24:50.684Z,10.48
2022-11-03T12:27:43.533Z,10.53
2022-11-03T12:30:19.761Z,10.56
2022-11-03T12:32:49.302Z,10.59
2022-11-03T12:35:18.331Z,10.63
2022-11-03T12:37:48.667Z,10.66
2022-11-03T12:40:17.237Z,10.69
2022-11-03T12:42:45.837Z,10.71
2022-11-03T12:45:14.774Z,10.74
2022-11-03T12:47:43.290Z,10.76
2022-11-03T12:50:12.086Z,10.78
2022-11-03T12:52:40.573Z,10.81
2022-11-03T12:55:11.531Z,10.81
2022-11-03T12:57:40.499Z,10.81
2022-11-03T13:00:10.985Z,10.85
2022-11-03T13:02:39.990Z,10.88
2022-11-03T13:05:09.981Z,10.92
2022-11-03T13:07:38.468Z,10.95
2022-11-03T13:10:11.547Z,10.98
2022-11-03T13:12:41.641Z,11.00
2022-11-03T13:15:13.616Z,11.03
2022-11-03T13:20:30.976Z,11.10
2022-11-03T13:22:59.459Z,11.15
2022-11-03T13:25:29.799Z,11.20
2022-11-03T13:27:58.698Z,11.26
2022-11-03T13:30:28.708Z,11.31
2022-11-03T13:32:57.773Z,11.35
2022-11-03T13:35:26.837Z,11.39
2022-11-03T13:37:55.325Z,11.43
2022-11-03T13:43:13.694Z,11.49
2022-11-03T13:45:42.211Z,11.51
2022-11-03T13:49:07.440Z,11.53
2022-11-03T13:51:00.368Z,11.54
2022-11-03T13:56:21.689Z,11.58
2022-11-03T14:01:41.899Z,11.60
2022-11-03T14:06:59.720Z,11.60
2022-11-03T14:09:28.283Z,11.60
2022-11-03T14:12:14.111Z,11.60
2022-11-03T14:14:44.069Z,11.59
2022-11-03T14:17:12.646Z,11.60
2022-11-03T14:19:45.048Z,11.58
2022-11-03T14:22:15.963Z,11.57
2022-11-03T14:24:44.529Z,11.56
2022-11-03T14:27:15.842Z,11.56
2022-11-03T14:29:49.679Z,11.55
2022-11-03T14:32:19.647Z,11.54
2022-11-03T14:34:48.697Z,11.53
2022-11-03T14:37:17.771Z,11.52
2022-11-03T14:39:46.295Z,11.50
2022-11-03T14:42:16.036Z,11.49
2022-11-03T14:44:47.706Z,11.50
2022-11-03T14:47:18.959Z,11.49
2022-11-03T14:49:48.683Z,11.48
2022-11-03T14:52:18.609Z,11.47
2022-11-03T14:54:47.399Z,11.46
2022-11-03T14:57:15.870Z,11.45
2022-11-03T14:59:49.178Z,11.45
2022-11-03T15:02:20.802Z,11.43
2022-11-03T15:04:49.846Z,11.41
2022-11-03T15:07:18.403Z,11.43
2022-11-03T15:09:46.925Z,11.41
2022-11-03T15:12:15.777Z,11.40
2022-11-03T15:14:45.650Z,11.38
2022-11-03T15:17:14.124Z,11.39
2022-11-03T15:19:42.590Z,11.39
2022-11-03T15:22:11.073Z,11.38
2022-11-03T15:27:28.160Z,11.35
2022-11-03T15:29:58.113Z,11.33
2022-11-03T15:32:26.855Z,11.31
2022-11-03T15:34:55.363Z,11.29
2022-11-03T15:37:23.907Z,11.30
2022-11-03T15:39:54.661Z,11.30
2022-11-03T15:42:27.083Z,11.28
2022-11-03T15:44:57.271Z,11.28
2022-11-03T15:47:26.393Z,11.27
2022-11-03T15:49:54.917Z,11.28
2022-11-03T15:52:23.385Z,11.26
2022-11-03T15:54:51.836Z,11.25
2022-11-03T15:57:20.346Z,11.24
2022-11-03T15:59:49.917Z,11.24
2022-11-03T16:02:40.430Z,11.23
2022-11-03T16:05:11.486Z,11.24
2022-11-03T16:07:40.259Z,11.25
2022-11-03T16:10:09.625Z,11.23
2022-11-03T16:12:38.927Z,11.24
2022-11-03T16:15:09.133Z,11.23
2022-11-03T16:17:44.346Z,11.22
2022-11-03T16:20:14.714Z,11.21
2022-11-03T16:22:43.310Z,11.21
2022-11-03T16:25:14.819Z,11.19
2022-11-03T16:27:45.359Z,11.20
2022-11-03T16:30:14.657Z,11.19
2022-11-03T16:32:45.069Z,11.18
2022-11-03T16:35:13.530Z,11.17
2022-11-03T16:37:41.984Z,11.15
2022-11-03T16:40:17.810Z,11.13
2022-11-03T16:42:48.023Z,11.14
2022-11-03T16:45:19.837Z,11.14
2022-11-03T16:47:51.360Z,11.14
2022-11-03T16:50:20.686Z,11.14
2022-11-03T16:52:50.798Z,11.13
2022-11-03T16:55:21.114Z,11.13
2022-11-03T16:57:49.506Z,11.14
2022-11-03T17:00:20.672Z,11.13
2022-11-03T17:02:51.039Z,11.11
2022-11-03T17:05:21.219Z,11.11
2022-11-03T17:07:54.000Z,11.12
2022-11-03T17:10:22.915Z,11.11
2022-11-03T17:12:51.433Z,11.11
2022-11-03T17:15:19.995Z,11.11
2022-11-03T17:17:49.975Z,11.11
2022-11-03T17:20:19.327Z,11.11
2022-11-03T17:22:48.755Z,11.10
2022-11-03T17:25:17.216Z,11.10
2022-11-03T17:27:50.854Z,11.11
2022-11-03T17:30:23.201Z,11.12
2022-11-03T17:32:57.172Z,11.11
2022-11-03T17:35:34.889Z,11.11
2022-11-03T17:38:14.042Z,11.11
2022-11-03T17:40:44.678Z,11.12
2022-11-03T17:43:21.556Z,11.11
2022-11-03T17:45:50.560Z,11.11
2022-11-03T17:48:24.352Z,11.10
2022-11-03T17:50:56.624Z,11.12
2022-11-03T17:53:28.765Z,11.10
2022-11-03T17:56:27.878Z,11.11
2022-11-03T17:58:47.511Z,11.13
2022-11-03T18:01:23.772Z,11.12
2022-11-03T18:03:53.952Z,11.13
2022-11-03T18:06:23.640Z,11.13
2022-11-03T18:08:52.055Z,11.12
2022-11-03T18:11:44.633Z,11.12
2022-11-03T18:14:13.420Z,11.13
2022-11-03T18:16:42.250Z,11.11
2022-11-03T18:19:15.264Z,11.12
2022-11-03T18:21:44.323Z,11.14
2022-11-03T18:24:15.342Z,11.14
2022-11-03T18:26:44.756Z,11.15
2022-11-03T18:29:13.262Z,11.16
2022-11-03T18:31:49.883Z,11.17
2022-11-03T18:34:28.410Z,11.18
2022-11-03T18:36:57.135Z,11.19
2022-11-03T18:39:29.790Z,11.19
2022-11-03T18:41:58.285Z,11.23
2022-11-03T18:44:29.522Z,11.27
2022-11-03T18:46:59.882Z,11.29
2022-11-03T18:49:33.577Z,11.28
2022-11-03T18:52:05.433Z,11.32
2022-11-03T18:54:36.833Z,11.33
2022-11-03T18:57:05.664Z,11.35
2022-11-03T18:59:38.334Z,11.37
2022-11-03T19:02:19.373Z,11.38
2022-11-03T19:04:50.694Z,11.40
2022-11-03T19:07:26.957Z,11.42
2022-11-03T19:09:55.596Z,11.44
2022-11-03T19:12:24.407Z,11.43
2022-11-03T19:14:53.292Z,11.43
2022-11-03T19:17:24.826Z,11.42
2022-11-03T19:19:55.167Z,11.44
2022-11-03T19:22:24.739Z,11.44
2022-11-03T19:24:53.372Z,11.44
2022-11-03T19:27:26.576Z,11.45
2022-11-03T19:29:57.094Z,11.46
2022-11-03T19:32:30.458Z,11.46
2022-11-03T19:35:06.122Z,11.48
2022-11-03T19:37:36.258Z,11.49
2022-11-03T19:40:09.065Z,11.49
2022-11-03T19:42:37.594Z,11.50
2022-11-03T19:45:09.173Z,11.51
2022-11-03T19:47:57.690Z,11.51
2022-11-03T19:50:37.625Z,11.52
2022-11-03T19:53:09.344Z,11.52
2022-11-03T19:55:43.655Z,11.53
2022-11-03T19:58:17.203Z,11.54
2022-11-03T20:00:47.142Z,11.55
2022-11-03T20:03:16.287Z,11.55
2022-11-03T20:05:49.819Z,11.57
2022-11-03T20:08:22.621Z,11.55
2022-11-03T20:10:52.002Z,11.54
2022-11-03T20:13:24.743Z,11.55
2022-11-03T20:16:00.533Z,11.55
2022-11-03T20:18:30.787Z,11.56
2022-11-03T20:21:01.250Z,11.54
2022-11-03T20:23:34.325Z,11.56
2022-11-03T20:26:04.143Z,11.54
2022-11-03T20:28:38.120Z,11.54
2022-11-03T20:31:08.036Z,11.53
2022-11-03T20:33:37.202Z,11.51
2022-11-03T20:36:08.376Z,11.49
2022-11-03T20:38:38.492Z,11.47
2022-11-03T20:41:16.116Z,11.44
2022-11-03T20:43:47.339Z,11.45
2022-11-03T20:46:27.784Z,11.43
2022-11-03T20:48:57.500Z,11.43
2022-11-03T20:51:32.885Z,11.43
2022-11-03T20:54:03.325Z,11.44
2022-11-03T20:56:31.971Z,11.42
2022-11-03T20:59:00.550Z,11.42
2022-11-03T21:01:34.293Z,11.41
2022-11-03T21:04:04.283Z,11.39
2022-11-03T21:06:34.785Z,11.38
2022-11-03T21:09:14.745Z,11.38
2022-11-03T21:11:45.325Z,11.37
2022-11-03T21:14:20.524Z,11.36
2022-11-03T21:17:06.413Z,11.33
2022-11-03T21:19:58.239Z,11.34
2022-11-03T21:22:53.291Z,11.35
2022-11-03T21:25:24.950Z,11.33
2022-11-03T21:27:57.722Z,11.32
2022-11-03T21:30:26.670Z,11.32
2022-11-03T21:32:55.154Z,11.32
2022-11-03T21:35:24.600Z,11.32
2022-11-03T21:37:54.805Z,11.30
2022-11-03T21:40:23.738Z,11.29
2022-11-03T21:43:09.951Z,11.29
2022-11-03T21:45:38.648Z,11.29
2022-11-03T21:48:25.999Z,11.27
2022-11-03T21:50:54.646Z,11.27
2022-11-03T21:53:24.455Z,11.25
2022-11-03T21:55:53.663Z,11.27
2022-11-03T21:58:22.512Z,11.27
2022-11-03T22:00:51.438Z,11.24
2022-11-03T22:03:20.100Z,11.26
2022-11-03T22:05:48.670Z,11.24
2022-11-03T22:08:17.254Z,11.25
2022-11-03T22:10:47.101Z,11.23
2022-11-03T22:13:15.614Z,11.24
2022-11-03T22:16:01.974Z,11.25
2022-11-03T22:18:30.496Z,11.24
2022-11-03T22:21:16.717Z,11.25
2022-11-03T22:24:02.430Z,11.25
2022-11-03T22:26:49.831Z,11.22
2022-11-03T22:29:35.753Z,11.22
2022-11-03T22:32:05.064Z,11.24
2022-11-03T22:34:50.912Z,11.20
2022-11-03T22:37:19.328Z,11.20
2022-11-03T22:40:04.909Z,11.19
2022-11-03T22:43:03.773Z,11.18
2022-11-03T22:45:49.607Z,11.17
2022-11-03T22:48:18.113Z,11.17
2022-11-03T22:50:46.896Z,11.16
2022-11-03T22:53:32.994Z,11.15
2022-11-03T22:56:02.521Z,11.14
2022-11-03T22:58:32.579Z,11.13
2022-11-03T23:01:06.100Z,11.14
2022-11-03T23:03:36.283Z,11.14
2022-11-03T23:06:07.443Z,11.16
2022-11-03T23:08:38.328Z,11.14
2022-11-03T23:11:10.502Z,11.14
2022-11-03T23:13:40.374Z,11.16
2022-11-03T23:16:15.568Z,11.14
2022-11-03T23:19:02.271Z,11.14
2022-11-03T23:21:31.598Z,11.14
2022-11-03T23:24:19.178Z,11.13
2022-11-03T23:26:48.256Z,11.13
2022-11-03T23:29:18.866Z,11.14
2022-11-03T23:31:47.796Z,11.13
2022-11-03T23:34:16.660Z,11.14
2022-11-03T23:36:45.568Z,11.13
2022-11-03T23:39:16.285Z,11.11
2022-11-03T23:41:46.501Z,11.12
2022-11-03T23:44:17.876Z,11.11
2022-11-03T23:47:04.543Z,11.09
2022-11-03T23:49:33.135Z,11.07
2022-11-03T23:52:01.715Z,11.03
2022-11-03T23:54:30.361Z,10.96
2022-11-03T23:57:15.174Z,10.95
